Time;durP1;ratioP1;P1;durP2;ratioP2;P2;SDS_P1;SDS_P2;PMS_P1;PMS_P2;Temp;Humidity;BMP_temperature;BMP_pressure;BME280_temperature;BME280_humidity;BME280_pressure;Samples;Min_cycle;Max_cycle;Signal;HPM_P1;HPM_P2
2024/01/07 00:01:17;;;;;;;69.47;30.27;;;3.30;99.90;;;;;;5007621;28;20055;-79
2024/01/07 00:04:07;;;;;;;72.20;29.50;;;3.30;99.90;;;;;;5024795;28;20054;-80
2024/01/07 00:07:14;;;;;;;75.82;30.67;;;3.30;99.90;;;;;;5012823;28;20057;-80
2024/01/07 00:10:24;;;;;;;73.73;30.40;;;3.30;99.90;;;;;;5022925;28;20760;-80
2024/01/07 00:13:12;;;;;;;77.70;33.05;;;3.30;99.90;;;;;;5027326;28;20701;-81
2024/01/07 00:16:08;;;;;;;75.15;31.65;;;3.30;99.90;;;;;;5022165;28;20046;-82
2024/01/07 00:18:58;;;;;;;70.13;29.85;;;3.30;99.90;;;;;;5018985;28;20042;-81
2024/01/07 00:21:54;;;;;;;69.28;30.98;;;3.30;99.90;;;;;;5027507;28;20049;-80
2024/01/07 00:24:52;;;;;;;75.10;31.65;;;3.30;99.90;;;;;;5026460;28;20060;-81
2024/01/07 00:27:42;;;;;;;69.72;30.83;;;3.30;99.90;;;;;;5012501;28;20042;-79
2024/01/07 00:30:42;;;;;;;68.63;29.88;;;3.30;99.90;;;;;;5033448;28;20046;-81
2024/01/07 00:33:35;;;;;;;70.38;29.17;;;3.30;99.90;;;;;;5032422;28;20060;-81
2024/01/07 00:36:28;;;;;;;68.20;28.08;;;3.30;99.90;;;;;;5031037;28;20060;-80
2024/01/07 00:39:31;;;;;;;67.20;29.63;;;3.30;99.90;;;;;;5028373;28;20131;-80
2024/01/07 00:42:34;;;;;;;60.83;28.42;;;3.30;99.90;;;;;;5013398;28;20060;-78
2024/01/07 00:45:33;;;;;;;61.65;27.02;;;3.30;99.90;;;;;;5036917;28;20056;-81
2024/01/07 00:48:30;;;;;;;63.72;27.02;;;3.30;99.90;;;;;;5019426;28;20071;-79
2024/01/07 00:51:33;;;;;;;46.08;21.10;;;3.20;99.90;;;;;;5035173;28;20524;-80
2024/01/07 00:54:35;;;;;;;53.92;25.58;;;3.20;99.90;;;;;;5035192;28;20046;-81
2024/01/07 00:57:38;;;;;;;60.83;27.58;;;3.30;99.90;;;;;;5026555;28;20046;-82
2024/01/07 01:00:33;;;;;;;50.67;26.20;;;3.30;99.90;;;;;;5030229;28;20042;-81
2024/01/07 01:03:21;;;;;;;62.63;27.20;;;3.20;99.90;;;;;;5025147;28;20159;-76
2024/01/07 01:06:43;;;;;;;54.63;25.65;;;3.20;99.90;;;;;;5036395;28;20048;-78
2024/01/07 01:09:50;;;;;;;55.67;25.52;;;3.20;99.90;;;;;;5019969;28;20096;-80
2024/01/07 01:12:56;;;;;;;55.75;26.20;;;3.20;99.90;;;;;;5016328;28;20049;-80
2024/01/07 01:16:00;;;;;;;54.30;25.52;;;3.30;99.90;;;;;;5032907;28;20244;-78
2024/01/07 01:18:56;;;;;;;57.55;25.95;;;3.30;99.90;;;;;;5025946;28;20572;-79
2024/01/07 01:21:49;;;;;;;56.88;26.98;;;3.30;99.90;;;;;;5067181;28;20064;-78
2024/01/07 01:24:45;;;;;;;56.25;27.17;;;3.30;99.90;;;;;;5009317;28;20502;-80
2024/01/07 01:27:38;;;;;;;56.75;25.90;;;3.30;99.90;;;;;;5021968;28;20502;-79
2024/01/07 01:30:34;;;;;;;57.17;26.85;;;3.30;99.90;;;;;;5029529;28;20076;-81
2024/01/07 01:33:26;;;;;;;57.08;26.90;;;3.30;99.90;;;;;;5032364;28;20053;-80
2024/01/07 01:36:25;;;;;;;59.90;26.27;;;3.40;99.90;;;;;;5032414;28;20053;-81
2024/01/07 01:39:18;;;;;;;61.38;27.25;;;3.40;99.90;;;;;;5009343;28;20049;-79
2024/01/07 01:42:20;;;;;;;66.93;28.13;;;3.40;99.90;;;;;;5010205;28;20064;-81
2024/01/07 01:45:13;;;;;;;65.22;28.27;;;3.40;99.90;;;;;;5003233;28;20103;-82
2024/01/07 01:48:28;;;;;;;62.72;26.80;;;3.40;99.90;;;;;;5013815;28;20053;-79
2024/01/07 01:51:28;;;;;;;59.75;26.23;;;3.40;99.90;;;;;;5031396;28;20436;-81
2024/01/07 01:54:26;;;;;;;74.05;27.80;;;3.40;99.90;;;;;;5027256;28;20049;-81
2024/01/07 01:57:36;;;;;;;73.88;27.98;;;3.30;99.90;;;;;;5028690;28;20050;-80
2024/01/07 02:00:30;;;;;;;87.18;27.17;;;3.30;99.90;;;;;;5017805;28;20115;-80
2024/01/07 02:03:24;;;;;;;81.00;30.00;;;3.30;99.90;;;;;;5032256;28;20056;-80
2024/01/07 02:06:28;;;;;;;79.15;27.85;;;3.30;99.90;;;;;;5027590;28;20045;-80
2024/01/07 02:09:21;;;;;;;99.15;29.00;;;3.30;99.90;;;;;;5021203;28;20049;-83
2024/01/07 02:12:29;;;;;;;95.50;28.98;;;3.30;99.90;;;;;;5023972;28;20124;-81
2024/01/07 02:15:25;;;;;;;120.97;29.25;;;3.30;99.90;;;;;;5017365;28;20573;-77
2024/01/07 02:18:19;;;;;;;112.57;29.27;;;3.30;99.90;;;;;;5021864;28;20049;-82
2024/01/07 02:21:10;;;;;;;114.10;28.27;;;3.30;99.90;;;;;;5036134;28;20037;-82
2024/01/07 02:24:14;;;;;;;189.90;32.17;;;3.30;99.90;;;;;;5030674;28;20049;-79
2024/01/07 02:27:27;;;;;;;113.20;28.77;;;3.30;99.90;;;;;;5047978;28;20129;-80
2024/01/07 02:30:25;;;;;;;175.13;31.50;;;3.30;99.90;;;;;;5035732;28;20556;-81
2024/01/07 02:33:25;;;;;;;125.30;31.80;;;3.30;99.90;;;;;;5054607;28;20045;-77
2024/01/07 02:36:23;;;;;;;155.10;32.60;;;3.20;99.90;;;;;;5024216;28;20179;-84
2024/01/07 02:39:19;;;;;;;134.27;31.35;;;3.20;99.90;;;;;;5030561;28;20056;-82
2024/01/07 02:42:20;;;;;;;142.93;33.70;;;3.20;99.90;;;;;;5018083;28;20073;-81
2024/01/07 02:45:22;;;;;;;143.43;32.28;;;3.20;99.90;;;;;;5028515;28;20057;-81
2024/01/07 02:48:20;;;;;;;146.10;32.58;;;3.20;99.90;;;;;;5020014;28;20069;-83
2024/01/07 02:51:11;;;;;;;167.77;34.22;;;3.20;99.90;;;;;;5022543;28;20057;-82
2024/01/07 02:54:06;;;;;;;143.45;36.00;;;3.20;99.90;;;;;;5029441;28;20061;-81
2024/01/07 02:56:56;;;;;;;142.35;33.92;;;3.20;99.90;;;;;;5026041;28;20042;-79
2024/01/07 02:59:48;;;;;;;119.22;33.13;;;3.20;99.90;;;;;;5040808;28;20053;-78
2024/01/07 03:02:46;;;;;;;113.35;33.15;;;3.20;99.90;;;;;;5039240;28;20036;-78
2024/01/07 03:06:08;;;;;;;103.93;32.85;;;3.20;99.90;;;;;;5033090;28;20056;-81
2024/01/07 03:09:12;;;;;;;129.93;36.05;;;3.20;99.90;;;;;;5022523;28;20134;-78
2024/01/07 03:12:04;;;;;;;110.35;33.65;;;3.10;99.90;;;;;;5020785;28;20064;-82
2024/01/07 03:14:56;;;;;;;115.03;34.80;;;3.10;99.90;;;;;;5024991;28;20096;-82
2024/01/07 03:17:49;;;;;;;108.63;32.88;;;3.20;99.90;;;;;;5012067;28;20050;-84
2024/01/07 03:20:52;;;;;;;108.72;33.88;;;3.10;99.90;;;;;;5027278;28;20528;-80
2024/01/07 03:23:58;;;;;;;94.20;32.67;;;3.10;99.90;;;;;;5023674;28;20046;-83
2024/01/07 03:26:50;;;;;;;107.93;35.30;;;3.10;99.90;;;;;;5032893;28;20036;-83
2024/01/07 03:30:05;;;;;;;101.57;35.08;;;3.20;99.90;;;;;;5015487;28;20042;-83
2024/01/07 03:33:05;;;;;;;99.25;35.20;;;3.20;99.90;;;;;;5035328;28;20063;-81
2024/01/07 03:36:17;;;;;;;111.85;37.53;;;3.20;99.90;;;;;;5012360;28;20049;-83
2024/01/07 03:39:37;;;;;;;94.13;34.20;;;3.10;99.90;;;;;;5008224;28;20140;-81
2024/01/07 03:42:40;;;;;;;95.95;34.67;;;3.10;99.90;;;;;;5009504;28;20048;-81
2024/01/07 03:45:41;;;;;;;101.00;36.40;;;3.10;99.90;;;;;;5013194;28;20461;-82
2024/01/07 03:48:35;;;;;;;102.53;38.53;;;3.10;99.90;;;;;;5018979;28;20528;-81
2024/01/07 03:51:37;;;;;;;103.80;34.95;;;3.10;99.90;;;;;;5031150;28;20041;-82
2024/01/07 03:54:46;;;;;;;98.63;35.53;;;3.10;99.90;;;;;;5027311;28;20045;-82
2024/01/07 03:57:48;;;;;;;99.38;36.78;;;3.10;99.90;;;;;;5032619;28;20061;-77
2024/01/07 04:00:53;;;;;;;106.82;38.72;;;3.10;99.90;;;;;;5045099;28;20047;-76
2024/01/07 04:03:58;;;;;;;92.53;37.20;;;3.10;99.90;;;;;;5045278;28;20049;-82
2024/01/07 04:07:06;;;;;;;97.57;37.90;;;3.10;99.90;;;;;;5029763;28;20045;-82
2024/01/07 04:10:12;;;;;;;102.15;37.53;;;3.10;99.90;;;;;;5027913;28;20045;-81
2024/01/07 04:13:20;;;;;;;101.47;36.92;;;3.10;99.90;;;;;;5027484;28;20421;-81
2024/01/07 04:16:29;;;;;;;110.47;38.95;;;3.10;99.90;;;;;;5019665;28;20085;-81
2024/01/07 04:19:31;;;;;;;105.47;37.30;;;3.10;99.90;;;;;;5028521;28;20045;-82
2024/01/07 04:22:24;;;;;;;99.00;36.97;;;3.10;99.90;;;;;;5026213;28;20037;-82
2024/01/07 04:25:38;;;;;;;91.55;35.72;;;3.10;99.90;;;;;;5029601;28;20047;-80
2024/01/07 04:28:52;;;;;;;89.32;36.47;;;3.10;99.90;;;;;;5032013;28;20514;-83
2024/01/07 04:32:25;;;;;;;98.20;36.13;;;3.00;99.90;;;;;;5008233;28;20060;-83
2024/01/07 04:36:08;;;;;;;103.22;37.50;;;3.00;99.90;;;;;;5030722;28;20053;-83
2024/01/07 04:39:34;;;;;;;88.50;36.85;;;3.00;99.90;;;;;;5033319;28;20061;-82
2024/01/07 04:42:59;;;;;;;90.07;36.83;;;2.90;99.90;;;;;;5026313;28;20042;-76
2024/01/07 04:46:03;;;;;;;87.10;35.90;;;2.80;99.90;;;;;;5011999;28;20049;-77
2024/01/07 04:49:00;;;;;;;95.80;38.33;;;2.80;99.90;;;;;;5018635;28;20068;-80
2024/01/07 04:52:02;;;;;;;98.60;38.30;;;2.80;99.90;;;;;;5018632;28;20073;-77
2024/01/07 04:55:22;;;;;;;100.28;39.03;;;2.80;99.90;;;;;;5018330;28;20049;-81
2024/01/07 04:58:27;;;;;;;85.07;35.08;;;2.80;99.90;;;;;;5014586;28;20809;-82
2024/01/07 05:01:56;;;;;;;;;;;;;;;;;;;;;
2024/01/07 05:05:00;;;;;;;91.07;37.72;;;2.80;99.90;;;;;;5028536;28;20056;-82
2024/01/07 05:08:22;;;;;;;;;;;;;;;;;;;;;
2024/01/07 05:11:23;;;;;;;85.95;38.35;;;2.80;99.90;;;;;;5030349;28;20091;-84
2024/01/07 05:14:24;;;;;;;89.22;36.83;;;2.80;99.90;;;;;;5037103;28;20028;-79
2024/01/07 05:17:27;;;;;;;94.22;37.70;;;2.80;99.90;;;;;;5004007;28;20041;-82
2024/01/07 05:20:32;;;;;;;82.70;35.47;;;2.80;99.90;;;;;;5007371;28;20099;-81
2024/01/07 05:23:44;;;;;;;85.18;37.25;;;2.80;99.90;;;;;;5018477;28;20045;-85
2024/01/07 05:26:58;;;;;;;81.75;35.50;;;2.70;99.90;;;;;;5026989;28;20060;-84
2024/01/07 05:29:48;;;;;;;84.50;35.08;;;2.70;99.90;;;;;;5021886;28;20041;-82
2024/01/07 05:33:03;;;;;;;81.78;33.85;;;2.70;99.90;;;;;;5009302;28;20053;-82
2024/01/07 05:36:29;;;;;;;;;;;;;;;;;;;;;
2024/01/07 05:42:58;;;;;;;72.40;32.20;;;2.70;99.90;;;;;;5028188;28;20386;-83
2024/01/07 05:46:25;;;;;;;69.32;30.60;;;2.70;99.90;;;;;;5005213;28;20045;-81
2024/01/07 05:53:07;;;;;;;62.63;30.20;;;2.70;99.90;;;;;;5005073;28;20049;-83
2024/01/07 05:56:18;;;;;;;69.13;29.80;;;2.70;99.90;;;;;;5029103;28;20132;-83
2024/01/07 05:59:23;;;;;;;67.18;28.33;;;2.70;99.90;;;;;;5015425;28;20421;-82
2024/01/07 06:02:31;;;;;;;60.80;28.10;;;2.70;99.90;;;;;;5008966;28;20071;-83
2024/01/07 06:05:39;;;;;;;59.97;27.65;;;2.70;99.90;;;;;;5020982;28;20176;-82
2024/01/07 06:08:52;;;;;;;62.47;27.75;;;2.70;99.90;;;;;;5003976;28;20815;-83
2024/01/07 06:11:50;;;;;;;61.00;27.98;;;2.70;99.90;;;;;;5021903;28;20037;-82
2024/01/07 06:15:04;;;;;;;60.90;29.38;;;2.70;99.90;;;;;;5024625;28;20043;-81
2024/01/07 06:18:03;;;;;;;60.70;29.00;;;2.70;99.90;;;;;;5032550;28;20221;-83
2024/01/07 06:21:12;;;;;;;59.63;28.77;;;2.70;99.90;;;;;;5031112;28;20045;-79
2024/01/07 06:24:14;;;;;;;62.80;30.52;;;2.70;99.90;;;;;;5028724;28;20056;-84
2024/01/07 06:27:33;;;;;;;59.88;29.77;;;2.70;99.90;;;;;;5030682;28;20455;-79
2024/01/07 06:31:02;;;;;;;58.20;30.48;;;2.70;99.90;;;;;;5026924;28;20353;-84
2024/01/07 06:34:02;;;;;;;67.13;30.73;;;2.70;99.90;;;;;;5019931;28;20095;-81
2024/01/07 06:37:07;;;;;;;63.15;31.35;;;2.70;99.90;;;;;;5019903;28;20059;-81
2024/01/07 06:40:17;;;;;;;72.13;32.83;;;2.70;99.90;;;;;;5023275;28;20172;-77
2024/01/07 06:43:22;;;;;;;70.30;33.20;;;2.70;99.90;;;;;;5043433;28;20022;-80
2024/01/07 06:46:22;;;;;;;64.03;31.73;;;2.70;99.90;;;;;;5009916;28;20179;-81
2024/01/07 06:49:28;;;;;;;69.82;33.28;;;2.70;99.90;;;;;;5013326;28;20525;-82
2024/01/07 06:52:21;;;;;;;70.40;33.92;;;2.70;99.90;;;;;;5011103;28;20041;-82
2024/01/07 06:55:29;;;;;;;65.68;33.28;;;2.60;99.90;;;;;;5005009;28;20042;-81
2024/01/07 06:58:36;;;;;;;68.55;33.30;;;2.70;99.90;;;;;;5011550;28;20414;-82
2024/01/07 07:01:38;;;;;;;74.35;35.20;;;2.70;99.90;;;;;;5026162;28;20096;-84
2024/01/07 07:04:46;;;;;;;70.32;33.78;;;2.70;99.90;;;;;;5024204;28;20057;-85
2024/01/07 07:07:59;;;;;;;78.35;35.85;;;2.70;99.90;;;;;;5006169;28;20046;-80
2024/01/07 07:11:03;;;;;;;64.75;34.53;;;2.70;99.90;;;;;;5004769;28;20041;-83
2024/01/07 07:13:53;;;;;;;66.22;35.13;;;2.70;99.90;;;;;;5005070;28;20042;-82
2024/01/07 07:16:58;;;;;;;73.00;36.45;;;2.70;99.90;;;;;;5020073;28;20045;-79
2024/01/07 07:20:14;;;;;;;71.65;34.60;;;2.70;99.90;;;;;;5011628;28;20164;-82
2024/01/07 07:23:15;;;;;;;75.47;37.75;;;2.60;99.90;;;;;;5005581;28;20529;-80
2024/01/07 07:26:18;;;;;;;72.70;37.60;;;2.60;99.90;;;;;;5010151;28;20037;-79
2024/01/07 07:29:40;;;;;;;76.15;39.53;;;2.70;99.90;;;;;;5018894;28;20049;-81
2024/01/07 07:32:43;;;;;;;74.03;35.75;;;2.70;99.90;;;;;;5015694;28;20041;-82
2024/01/07 07:35:41;;;;;;;76.82;36.88;;;2.60;99.90;;;;;;5022202;28;20069;-79
2024/01/07 07:38:58;;;;;;;70.15;38.42;;;2.70;99.90;;;;;;5008898;28;20546;-86
2024/01/07 07:42:00;;;;;;;67.82;35.65;;;2.70;99.90;;;;;;5025082;28;20053;-84
2024/01/07 07:45:00;;;;;;;73.53;37.20;;;2.60;99.90;;;;;;5023292;28;20615;-82
2024/01/07 07:48:05;;;;;;;64.05;35.22;;;2.60;99.90;;;;;;5008231;28;20233;-83
2024/01/07 07:51:28;;;;;;;71.97;38.58;;;2.60;99.90;;;;;;5000157;28;20038;-80
2024/01/07 07:54:22;;;;;;;52.15;26.88;;;2.60;99.90;;;;;;5028525;28;20025;-78
2024/01/07 07:57:38;;;;;;;67.18;33.55;;;2.60;99.90;;;;;;5051565;28;20053;-81
2024/01/07 08:00:37;;;;;;;64.20;34.13;;;2.50;99.90;;;;;;5019760;28;20045;-82
2024/01/07 08:03:36;;;;;;;58.55;30.08;;;2.50;99.90;;;;;;5022272;28;20065;-81
2024/01/07 08:06:47;;;;;;;61.50;31.15;;;2.40;99.90;;;;;;5042149;28;20049;-84
2024/01/07 08:09:48;;;;;;;61.88;30.10;;;2.40;99.90;;;;;;5024596;28;20045;-81
2024/01/07 08:12:36;;;;;;;56.30;30.50;;;2.40;99.90;;;;;;5013494;28;20053;-79
2024/01/07 08:15:38;;;;;;;56.47;30.42;;;2.30;99.90;;;;;;5020218;28;20041;-78
2024/01/07 08:18:37;;;;;;;59.22;29.98;;;2.30;99.90;;;;;;5025960;28;20510;-78
2024/01/07 08:21:33;;;;;;;45.03;26.88;;;2.30;99.90;;;;;;5017662;28;20046;-79
2024/01/07 08:24:29;;;;;;;46.30;26.55;;;2.30;99.90;;;;;;5044910;28;20057;-76
2024/01/07 08:27:20;;;;;;;51.20;27.73;;;2.20;99.90;;;;;;5054091;28;20021;-77
2024/01/07 08:30:09;;;;;;;47.15;26.45;;;2.20;99.90;;;;;;5048332;28;20037;-79
2024/01/07 08:33:01;;;;;;;41.28;25.35;;;2.10;99.90;;;;;;5031629;28;20486;-82
2024/01/07 08:36:05;;;;;;;44.15;25.55;;;2.10;99.90;;;;;;5028449;28;20120;-81
2024/01/07 08:39:30;;;;;;;44.13;26.10;;;2.10;99.90;;;;;;5011048;28;20052;-81
2024/01/07 08:42:33;;;;;;;;;;;;;;;;;;;;;
2024/01/07 08:48:42;;;;;;;39.35;22.90;;;2.10;99.90;;;;;;5037355;28;20073;-77
2024/01/07 08:51:40;;;;;;;39.05;22.17;;;2.10;99.90;;;;;;5032781;28;20064;-76
2024/01/07 08:54:38;;;;;;;36.47;22.17;;;2.20;99.90;;;;;;5037959;28;20056;-78
2024/01/07 08:57:48;;;;;;;43.25;22.92;;;2.10;99.90;;;;;;5041379;28;20123;-79
2024/01/07 09:00:44;;;;;;;40.23;23.07;;;2.10;99.90;;;;;;5043350;28;20048;-79
2024/01/07 09:03:45;;;;;;;29.83;17.38;;;2.10;99.90;;;;;;5035990;28;20052;-78
2024/01/07 09:07:00;;;;;;;36.83;21.55;;;2.10;99.90;;;;;;5027063;28;20037;-78
2024/01/07 09:09:51;;;;;;;36.60;20.48;;;2.10;99.90;;;;;;5045034;28;20045;-78
2024/01/07 09:12:53;;;;;;;40.75;20.73;;;2.20;99.90;;;;;;5042956;28;20030;-76
2024/01/07 09:15:56;;;;;;;36.55;19.95;;;2.20;99.90;;;;;;5042432;28;20045;-78
2024/01/07 09:18:47;;;;;;;40.65;22.20;;;2.10;99.90;;;;;;5047271;28;20109;-78
2024/01/07 09:21:39;;;;;;;34.92;20.88;;;2.10;99.90;;;;;;5052934;28;20049;-79
2024/01/07 09:24:59;;;;;;;38.23;21.70;;;2.10;99.90;;;;;;5039572;28;20061;-78
2024/01/07 09:27:55;;;;;;;41.50;22.35;;;2.10;99.90;;;;;;5022939;28;20045;-81
2024/01/07 09:30:45;;;;;;;39.60;21.63;;;2.10;99.90;;;;;;5008707;28;20512;-80
2024/01/07 09:33:38;;;;;;;38.20;21.35;;;2.00;99.90;;;;;;5016979;28;20128;-81
2024/01/07 09:36:44;;;;;;;38.35;20.27;;;2.00;99.90;;;;;;5034239;28;20533;-79
2024/01/07 09:39:52;;;;;;;35.30;20.80;;;2.00;99.90;;;;;;5022439;28;20072;-79
2024/01/07 09:42:48;;;;;;;36.55;19.98;;;2.00;99.90;;;;;;5019858;28;20037;-80
2024/01/07 09:45:44;;;;;;;30.33;17.80;;;2.00;99.90;;;;;;5038900;28;20423;-82
2024/01/07 09:48:40;;;;;;;29.63;17.88;;;2.00;99.90;;;;;;5023262;28;20092;-80
2024/01/07 09:51:31;;;;;;;27.13;16.70;;;2.00;99.90;;;;;;5039639;28;20041;-79
2024/01/07 09:54:25;;;;;;;25.30;15.93;;;2.10;99.90;;;;;;5032199;28;20038;-79
2024/01/07 09:57:19;;;;;;;25.00;15.85;;;2.10;99.90;;;;;;5021196;28;20034;-78
2024/01/07 10:00:11;;;;;;;28.48;15.90;;;2.10;99.90;;;;;;5031954;28;20053;-81
2024/01/07 10:03:02;;;;;;;19.25;12.00;;;2.10;99.90;;;;;;5025545;28;20062;-82
2024/01/07 10:05:53;;;;;;;22.38;13.80;;;2.10;99.90;;;;;;5011802;28;20049;-80
2024/01/07 10:08:50;;;;;;;21.52;13.32;;;2.10;99.90;;;;;;5024126;28;20080;-80
2024/01/07 10:11:40;;;;;;;23.02;13.35;;;2.20;99.90;;;;;;5008665;28;20049;-79
2024/01/07 10:14:40;;;;;;;21.83;13.57;;;2.30;99.90;;;;;;5025847;28;20340;-79
2024/01/07 10:17:31;;;;;;;25.75;13.15;;;2.30;99.90;;;;;;5013186;28;20080;-80
2024/01/07 10:20:19;;;;;;;22.27;13.73;;;2.40;99.90;;;;;;5028990;28;20046;-79
2024/01/07 10:23:22;;;;;;;19.75;13.45;;;2.40;99.90;;;;;;5029357;28;20055;-79
2024/01/07 10:26:21;;;;;;;22.00;13.07;;;2.40;99.90;;;;;;5023821;28;20120;-78
2024/01/07 10:29:28;;;;;;;18.77;12.85;;;2.50;99.90;;;;;;5029776;28;20052;-77
2024/01/07 10:32:29;;;;;;;18.48;11.70;;;2.60;99.90;;;;;;5030693;28;20065;-79
2024/01/07 10:35:48;;;;;;;17.33;11.23;;;2.50;99.90;;;;;;5024573;28;20049;-78
2024/01/07 10:38:45;;;;;;;18.83;11.80;;;2.40;99.90;;;;;;5035413;28;20053;-81
2024/01/07 10:41:42;;;;;;;17.20;10.88;;;2.30;99.90;;;;;;5023614;28;20054;-82
2024/01/07 10:44:32;;;;;;;15.90;10.57;;;2.20;99.90;;;;;;5025978;28;20485;-82
2024/01/07 10:47:23;;;;;;;18.25;11.07;;;2.20;99.90;;;;;;5007474;28;20057;-79
2024/01/07 10:50:26;;;;;;;17.08;11.15;;;2.10;99.90;;;;;;5009209;28;20191;-81
2024/01/07 10:53:25;;;;;;;18.88;11.57;;;2.10;99.90;;;;;;5025415;28;20041;-78
2024/01/07 10:56:19;;;;;;;17.38;11.88;;;2.00;99.90;;;;;;5021419;28;20129;-79
2024/01/07 10:59:10;;;;;;;18.92;11.85;;;1.90;99.90;;;;;;5024096;28;20109;-79
2024/01/07 11:01:58;;;;;;;20.88;12.65;;;1.90;99.90;;;;;;5006259;28;21200;-79
2024/01/07 11:05:04;;;;;;;18.77;12.68;;;1.90;99.90;;;;;;5023628;28;20093;-80
2024/01/07 11:08:06;;;;;;;22.20;12.57;;;1.80;99.90;;;;;;5020269;28;20091;-78
2024/01/07 11:11:04;;;;;;;17.08;11.80;;;1.80;99.90;;;;;;5020895;28;20048;-78
2024/01/07 11:13:52;;;;;;;20.30;12.23;;;1.80;99.90;;;;;;5022619;28;20038;-78
2024/01/07 11:16:48;;;;;;;19.25;12.20;;;1.70;99.90;;;;;;4991287;28;20045;-81
2024/01/07 11:19:48;;;;;;;20.05;12.35;;;1.70;99.90;;;;;;4983827;28;20130;-80
2024/01/07 11:22:39;;;;;;;19.55;11.77;;;1.60;99.90;;;;;;4988488;28;20042;-81
2024/01/07 11:25:31;;;;;;;18.92;12.25;;;1.50;99.90;;;;;;4986598;28;20049;-78
2024/01/07 11:28:41;;;;;;;20.25;12.80;;;1.50;99.90;;;;;;4983775;28;20046;-80
2024/01/07 11:31:41;;;;;;;20.58;12.55;;;1.50;99.90;;;;;;4990407;28;20039;-79
2024/01/07 11:34:43;;;;;;;16.20;10.68;;;1.40;99.90;;;;;;4985958;28;20039;-80
2024/01/07 11:37:30;;;;;;;18.42;12.50;;;1.40;99.90;;;;;;4990842;28;20050;-80
2024/01/07 11:40:19;;;;;;;21.00;12.18;;;1.30;99.90;;;;;;4987986;28;20046;-78
2024/01/07 11:43:11;;;;;;;16.80;11.40;;;1.30;99.90;;;;;;4999074;28;20046;-80
2024/01/07 11:45:58;;;;;;;16.08;10.73;;;1.30;99.90;;;;;;4994259;28;20046;-80
2024/01/07 11:48:47;;;;;;;17.42;11.27;;;1.30;99.90;;;;;;4988117;28;20038;-79
2024/01/07 11:51:37;;;;;;;17.85;12.10;;;1.30;99.90;;;;;;4992364;28;20557;-77
2024/01/07 11:54:25;;;;;;;18.95;11.55;;;1.30;99.90;;;;;;4996378;28;20065;-79
2024/01/07 11:57:13;;;;;;;19.27;12.07;;;1.30;99.90;;;;;;4985856;28;20038;-80
2024/01/07 12:00:03;;;;;;;19.65;11.75;;;1.30;99.90;;;;;;4995938;28;20038;-78
2024/01/07 12:03:06;;;;;;;18.25;11.68;;;1.30;99.90;;;;;;4981899;28;20050;-80
2024/01/07 12:05:54;;;;;;;16.90;11.30;;;1.40;99.90;;;;;;4998056;28;20560;-79
2024/01/07 12:08:42;;;;;;;19.05;12.00;;;1.30;99.90;;;;;;4993999;28;20145;-80
2024/01/07 12:11:31;;;;;;;21.40;12.05;;;1.40;99.90;;;;;;4983437;28;20126;-81
2024/01/07 12:14:22;;;;;;;19.88;12.43;;;1.40;99.90;;;;;;4986209;28;20047;-81
2024/01/07 12:17:14;;;;;;;17.55;11.57;;;1.40;99.90;;;;;;4979362;28;20784;-81
2024/01/07 12:20:04;;;;;;;16.90;11.48;;;1.50;99.90;;;;;;4982507;28;20426;-79
2024/01/07 12:22:55;;;;;;;17.75;11.32;;;1.50;99.90;;;;;;4998891;28;20050;-81
2024/01/07 12:25:43;;;;;;;19.02;11.57;;;1.50;99.90;;;;;;4995949;28;20034;-80
2024/01/07 12:28:32;;;;;;;17.05;11.35;;;1.40;99.90;;;;;;4989158;28;20046;-81
2024/01/07 12:31:25;;;;;;;18.38;10.93;;;1.40;99.90;;;;;;4986371;28;20082;-79
2024/01/07 12:34:25;;;;;;;16.70;11.05;;;1.40;99.90;;;;;;4984324;28;20058;-79
2024/01/07 12:37:17;;;;;;;18.02;11.57;;;1.40;50.80;;;;;;4981010;28;20046;-82
2024/01/07 12:40:11;;;;;;;16.08;11.32;;;1.30;38.90;;;;;;4999151;28;20053;-80
2024/01/07 12:43:07;;;;;;;16.48;11.45;;;1.30;14.10;;;;;;4987811;28;20046;-78
2024/01/07 12:46:04;;;;;;;18.35;11.02;;;1.30;25.00;;;;;;4970438;28;20057;-79
2024/01/07 12:48:52;;;;;;;17.48;11.63;;;1.20;1.00;;;;;;4986946;28;20051;-81
2024/01/07 12:51:43;;;;;;;17.55;11.93;;;1.20;8.70;;;;;;4973574;28;20049;-76
2024/01/07 12:54:33;;;;;;;15.52;11.38;;;1.20;1.00;;;;;;4993693;28;20050;-82
2024/01/07 12:57:27;;;;;;;17.92;11.70;;;1.20;1.00;;;;;;4995502;28;20038;-81
2024/01/07 13:00:16;;;;;;;20.02;12.30;;;1.10;1.00;;;;;;4983340;28;20093;-78
2024/01/07 13:03:17;;;;;;;19.13;12.40;;;1.10;1.00;;;;;;4985379;28;20069;-83
2024/01/07 13:06:11;;;;;;;18.40;12.02;;;1.00;1.00;;;;;;4966558;28;20050;-80
2024/01/07 13:09:05;;;;;;;19.83;12.27;;;1.10;1.00;;;;;;5004149;28;20050;-81
2024/01/07 13:11:53;;;;;;;17.58;11.73;;;1.10;1.00;;;;;;4985267;28;20419;-81
2024/01/07 13:14:42;;;;;;;19.92;12.85;;;1.00;1.00;;;;;;4975052;28;20101;-78
2024/01/07 13:17:30;;;;;;;19.67;13.05;;;1.10;1.00;;;;;;4981579;28;20467;-81
2024/01/07 13:20:19;;;;;;;19.65;13.60;;;1.10;1.00;;;;;;4984785;28;20051;-82
2024/01/07 13:23:09;;;;;;;24.00;15.60;;;1.00;1.00;;;;;;4995616;28;20117;-80
2024/01/07 13:25:56;;;;;;;21.60;14.32;;;1.00;1.00;;;;;;4974888;28;20053;-79
2024/01/07 13:28:45;;;;;;;22.45;14.18;;;1.00;1.00;;;;;;4981121;28;20038;-81
2024/01/07 13:31:35;;;;;;;21.85;14.38;;;1.00;1.00;;;;;;4972978;28;20094;-77
2024/01/07 13:34:23;;;;;;;23.08;15.13;;;0.90;1.00;;;;;;4997206;28;20034;-78
2024/01/07 13:37:11;;;;;;;22.15;14.35;;;0.90;1.00;;;;;;5004634;28;20312;-77
2024/01/07 13:40:00;;;;;;;24.92;15.45;;;0.80;1.00;;;;;;5001867;28;20081;-78
2024/01/07 13:42:50;;;;;;;24.85;15.63;;;0.80;1.00;;;;;;4987177;28;20043;-79
2024/01/07 13:45:40;;;;;;;24.55;15.95;;;0.80;27.20;;;;;;4987760;28;20053;-78
2024/01/07 13:48:30;;;;;;;26.75;15.93;;;0.80;43.10;;;;;;4984477;28;20042;-81
2024/01/07 13:51:18;;;;;;;25.25;16.77;;;0.80;51.60;;;;;;4993370;28;21296;-79
2024/01/07 13:54:07;;;;;;;27.33;16.75;;;0.80;31.00;;;;;;5003058;28;20061;-81
2024/01/07 13:56:54;;;;;;;32.22;18.73;;;0.70;28.40;;;;;;4994197;28;20052;-80
2024/01/07 13:59:42;;;;;;;29.08;17.30;;;0.70;27.50;;;;;;4988358;28;20061;-79
2024/01/07 14:02:33;;;;;;;29.02;17.25;;;0.70;35.20;;;;;;4993237;28;20046;-79
2024/01/07 14:05:24;;;;;;;24.40;16.35;;;0.60;22.50;;;;;;4990824;28;20051;-81
2024/01/07 14:08:11;;;;;;;26.33;16.40;;;0.60;1.00;;;;;;4978424;28;20050;-80
2024/01/07 14:11:03;;;;;;;25.92;16.83;;;0.60;1.00;;;;;;4987592;28;20050;-81
2024/01/07 14:13:51;;;;;;;27.67;17.63;;;0.50;1.00;;;;;;4973336;28;20043;-81
2024/01/07 14:16:40;;;;;;;28.27;16.20;;;0.50;1.00;;;;;;4984437;28;20108;-81
2024/01/07 14:19:34;;;;;;;27.92;16.67;;;0.40;1.00;;;;;;4968900;28;20120;-80
2024/01/07 14:22:27;;;;;;;26.95;16.98;;;0.40;1.00;;;;;;4987869;28;20050;-81
2024/01/07 14:25:22;;;;;;;26.15;17.23;;;0.30;1.00;;;;;;4984296;28;20050;-79
2024/01/07 14:28:11;;;;;;;29.45;16.75;;;0.30;1.00;;;;;;4980770;28;20106;-82
2024/01/07 14:31:03;;;;;;;23.80;16.83;;;0.30;1.00;;;;;;4977735;28;20053;-80
2024/01/07 14:33:58;;;;;;;28.50;16.50;;;0.30;1.00;;;;;;4995292;28;20063;-78
2024/01/07 14:36:56;;;;;;;29.67;18.83;;;0.20;1.00;;;;;;5010749;28;20039;-79
2024/01/07 14:39:45;;;;;;;29.60;17.35;;;0.20;1.00;;;;;;4985720;28;20069;-81
2024/01/07 14:42:47;;;;;;;24.67;16.17;;;0.20;1.00;;;;;;4991457;28;20040;-84
2024/01/07 14:45:40;;;;;;;25.08;15.75;;;0.20;1.00;;;;;;4975945;28;20436;-82
2024/01/07 14:48:39;;;;;;;28.08;17.10;;;0.20;1.00;;;;;;4967823;28;20054;-82
2024/01/07 14:51:31;;;;;;;29.48;17.77;;;0.20;1.00;;;;;;4992463;28;20064;-80
2024/01/07 14:54:32;;;;;;;26.60;16.83;;;0.10;1.00;;;;;;4987961;28;20043;-79
2024/01/07 14:57:23;;;;;;;30.85;18.15;;;0.10;1.00;;;;;;4991359;28;20042;-81
2024/01/07 15:00:17;;;;;;;28.50;17.65;;;0.10;1.00;;;;;;4990680;28;20054;-82
2024/01/07 15:03:08;;;;;;;31.60;18.80;;;0.00;1.00;;;;;;4985569;28;20062;-79
2024/01/07 15:05:56;;;;;;;29.80;18.70;;;0.00;22.10;;;;;;5001642;28;20046;-82
2024/01/07 15:08:44;;;;;;;32.72;19.77;;;-0.10;40.20;;;;;;4987619;28;20046;-79
2024/01/07 15:11:34;;;;;;;33.60;20.17;;;-0.10;44.80;;;;;;4986982;28;20050;-80
2024/01/07 15:14:25;;;;;;;32.55;19.20;;;-0.10;77.50;;;;;;4979946;28;20049;-81
2024/01/07 15:17:23;;;;;;;37.80;20.42;;;-0.10;96.50;;;;;;4969378;28;20053;-80
2024/01/07 15:20:11;;;;;;;39.85;22.13;;;-0.20;99.90;;;;;;4984515;28;20046;-81
2024/01/07 15:23:02;;;;;;;37.28;21.25;;;-0.20;99.90;;;;;;4984214;28;20593;-82
2024/01/07 15:25:50;;;;;;;36.75;21.45;;;-0.30;99.90;;;;;;4984831;28;20051;-79
2024/01/07 15:28:38;;;;;;;35.55;21.50;;;-0.30;99.90;;;;;;4984161;28;20061;-82
2024/01/07 15:31:26;;;;;;;43.28;23.55;;;-0.30;99.90;;;;;;4995687;28;20042;-79
2024/01/07 15:34:17;;;;;;;40.42;23.15;;;-0.40;99.90;;;;;;4986392;28;20038;-80